Accueil
METAR-TAF:

METAR-TAF

Aéroports :

Aéroport de Bournemouth

Bornemouth, Angleterre

latitude: 50-47N, longitude: 001-50W, altitude: 11 m

Observation

Le bulletin a été fait il y a 19 minutes, à 06:50 UTC
Vent 6 kt de ouest
Température 12°C
Humidité 76%
Pression 1013 hPa
Visibilité 10 km ou plus
Quelques nuages à une hauteur de 4800 ft

METAR: EGHH 270650Z 28006KT 9999 FEW048 12/08 Q1013

Heure: 08:09 (07:09 UTC)

Prévision

Le bulletin a été fait il y a 1 heure et 39 minutes, à 05:30 UTC
Prévision valable du 27 à 06 UTC au 27 à 15 UTC
Vent 6 kt de ouest
Visibilité 10 km ou plus
Quelques nuages à une hauteur de 3000 ft
Probabilité 30% :
Temporairement
du 27 à 09 UTC au 27 à 15 UTC
Vent 15 kt de ouest/nord-ouest avec des rafales jusqu'à 25 kt
Visibilité: 7000 m
averses de pluie

TAF: EGHH 270530Z 2706/2715 28006KT 9999 FEW030 PROB30 TEMPO 2709/2715 29015G25KT 7000 SHRA

Observations et prévisions météorologiques de plus de 4000 aéroports (messages METAR et TAF).

Les stations disponibles sont représentées par des disques jaunes et rouges sur la carte.

Passer la souris dessus pour voir le nom de la station.

Cliquer dessus pour voir les observations et prévisions météorologiques.

Pour changer de carte: cliquez sur les boutons verts avec une croix noire pour zoomer, sur le bouton vert avec un tiret pour effectuer un zoom arrière, ou sur les flèches vertes pour les cartes adjacentes.


METAR-TAF: